Time;durP1;ratioP1;P1;durP2;ratioP2;P2;SDS_P1;SDS_P2;PMS_P1;PMS_P2;Temp;Humidity;BMP_temperature;BMP_pressure;BME280_temperature;BME280_humidity;BME280_pressure;Samples;Min_cycle;Max_cycle;Signal;HPM_P1;HPM_P2
2022/10/07 00:01:52;;;;;;;4.35;0.70;;;;;;;23.41;75.00;101399.94;5054075;28;20032;-71
2022/10/07 00:04:18;;;;;;;1.42;0.50;;;;;;;23.40;74.85;101390.22;5054079;28;20025;-72
2022/10/07 00:06:44;;;;;;;0.82;0.30;;;;;;;23.39;74.96;101388.53;5053886;28;20025;-72
2022/10/07 00:09:10;;;;;;;3.60;0.70;;;;;;;23.37;75.02;101383.34;5053793;28;20470;-72
2022/10/07 00:11:36;;;;;;;2.72;0.75;;;;;;;23.36;75.07;101385.19;5053870;28;20021;-72
2022/10/07 00:14:06;;;;;;;2.55;0.55;;;;;;;23.34;74.81;101375.63;5052917;28;20056;-72
2022/10/07 00:16:40;;;;;;;1.33;0.55;;;;;;;23.38;75.03;101381.50;5052711;28;20029;-72
2022/10/07 00:19:10;;;;;;;3.55;0.65;;;;;;;23.35;74.94;101375.47;5053232;28;20140;-72
2022/10/07 00:21:36;;;;;;;2.17;0.45;;;;;;;23.34;75.11;101381.84;5053676;28;20048;-72
2022/10/07 00:24:03;;;;;;;2.05;0.30;;;;;;;23.33;74.94;101380.16;5053757;28;20103;-71
2022/10/07 00:26:31;;;;;;;1.58;0.40;;;;;;;23.32;75.12;101369.59;5053692;28;20033;-72
2022/10/07 00:28:56;;;;;;;1.35;0.55;;;;;;;23.31;74.96;101367.94;5053485;28;20082;-72
2022/10/07 00:31:24;;;;;;;3.10;0.47;;;;;;;23.30;75.14;101366.25;5052559;28;20025;-72
2022/10/07 00:33:51;;;;;;;2.83;0.85;;;;;;;23.27;74.95;101367.41;5053501;28;20023;-72
2022/10/07 00:36:22;;;;;;;3.08;0.70;;;;;;;23.29;75.27;101364.56;5053637;28;20049;-72
2022/10/07 00:39:09;;;;;;;1.48;0.40;;;;;;;23.29;75.04;101365.41;5053451;28;20029;-72
2022/10/07 00:41:38;;;;;;;2.55;0.55;;;;;;;23.24;74.99;101362.38;5053372;28;20021;-72
2022/10/07 00:44:31;;;;;;;3.45;0.65;;;;;;;23.27;75.36;101363.91;5052277;28;20107;-71
2022/10/07 00:47:26;;;;;;;2.28;0.70;;;;;;;23.25;75.20;101364.06;5033249;28;20029;-71
2022/10/07 00:50:09;;;;;;;1.35;0.30;;;;;;;23.25;75.04;101364.06;5033386;28;20022;-71
2022/10/07 00:52:41;;;;;;;2.95;0.60;;;;;;;23.22;75.36;101359.00;5033229;28;20113;-72
2022/10/07 00:55:08;;;;;;;;;;;;;;;23.25;75.12;101358.69;5033543;28;20013;-72
2022/10/07 00:57:36;;;;;;;3.78;0.88;;;;;;;23.22;75.22;101360.88;5033039;28;19920;-72
2022/10/07 01:00:04;;;;;;;2.10;0.57;;;;;;;23.23;75.42;101355.34;5039628;28;20111;-72
2022/10/07 01:02:30;;;;;;;1.85;0.43;;;;;;;23.20;75.15;101344.13;5052880;28;20551;-72
2022/10/07 01:04:58;;;;;;;2.78;1.00;;;;;;;23.18;75.10;101341.59;5052820;28;20104;-72
2022/10/07 01:07:24;;;;;;;0.95;0.50;;;;;;;23.16;75.42;101346.28;5052813;28;20021;-72
2022/10/07 01:09:52;;;;;;;2.45;0.50;;;;;;;23.16;75.35;101344.47;5052721;28;20044;-72
2022/10/07 01:12:20;;;;;;;1.42;0.55;;;;;;;23.15;75.30;101342.78;5053312;28;20128;-72
2022/10/07 01:14:56;;;;;;;1.38;0.60;;;;;;;23.16;75.13;101335.56;5051961;28;20104;-72
2022/10/07 01:17:28;;;;;;;1.98;0.60;;;;;;;23.15;75.26;101333.91;5052589;28;20036;-72
2022/10/07 01:20:15;;;;;;;2.63;0.63;;;;;;;23.14;75.30;101329.53;5052535;28;20490;-72
2022/10/07 01:22:49;;;;;;;2.13;0.60;;;;;;;23.14;75.33;101326.84;5052572;28;20082;-72
2022/10/07 01:25:36;;;;;;;1.80;0.77;;;;;;;23.15;75.28;101325.88;5052566;28;20025;-72
2022/10/07 01:28:08;;;;;;;0.95;0.28;;;;;;;23.12;75.54;101312.78;5051891;28;20033;-71
2022/10/07 01:30:40;;;;;;;3.15;0.57;;;;;;;23.11;75.27;101309.28;5050165;28;20025;-72
2022/10/07 01:33:13;;;;;;;2.80;0.55;;;;;;;23.11;75.51;101300.41;5052320;28;20487;-72
2022/10/07 01:35:42;;;;;;;1.10;0.30;;;;;;;23.09;75.42;101292.53;5052308;28;20082;-72
2022/10/07 01:38:11;;;;;;;2.85;0.52;;;;;;;23.10;75.39;101290.69;5052218;28;20486;-72
2022/10/07 01:41:03;;;;;;;1.98;0.45;;;;;;;23.11;75.54;101289.69;5052158;28;20021;-72
2022/10/07 01:43:31;;;;;;;1.92;0.20;;;;;;;23.07;75.21;101269.59;5051521;28;20033;-72
2022/10/07 01:45:57;;;;;;;1.33;0.30;;;;;;;23.07;75.38;101274.97;5032065;28;20471;-72
2022/10/07 01:48:22;;;;;;;3.75;0.90;;;;;;;23.06;75.45;101274.09;5032178;28;20044;-72
2022/10/07 01:50:50;;;;;;;0.85;0.40;;;;;;;23.07;75.18;101266.94;5032292;28;20064;-72
2022/10/07 01:53:19;;;;;;;1.77;0.60;;;;;;;23.06;75.56;101257.19;5043998;28;20033;-72
2022/10/07 01:55:47;;;;;;;1.33;0.50;;;;;;;23.06;75.25;101254.53;5051903;28;20025;-72
2022/10/07 01:58:40;;;;;;;2.40;0.63;;;;;;;23.04;75.36;101246.66;5051811;28;20062;-72
2022/10/07 02:01:24;;;;;;;1.45;0.25;;;;;;;23.03;75.48;101242.31;5051947;28;20029;-72
2022/10/07 02:04:12;;;;;;;1.20;0.40;;;;;;;23.02;75.51;101240.63;5051995;28;20033;-72
2022/10/07 02:06:56;;;;;;;1.50;0.50;;;;;;;23.01;75.44;101232.75;5051037;28;20489;-72
2022/10/07 02:09:33;;;;;;;2.08;0.40;;;;;;;23.01;75.47;101232.75;5049282;28;20036;-72
2022/10/07 02:12:41;;;;;;;2.35;0.68;;;;;;;23.03;75.55;101228.09;5051875;28;20032;-72
2022/10/07 02:15:16;;;;;;;3.13;1.00;;;;;;;22.99;75.69;101218.69;5040366;28;20048;-72
2022/10/07 02:17:53;;;;;;;1.02;0.30;;;;;;;22.99;75.44;101216.00;5051506;28;20111;-72
2022/10/07 02:20:24;;;;;;;0.75;0.30;;;;;;;22.99;75.35;101213.31;5051985;28;20021;-72
2022/10/07 02:22:51;;;;;;;1.30;0.35;;;;;;;22.98;75.36;101199.06;5051997;28;20029;-72
2022/10/07 02:25:19;;;;;;;2.28;0.75;;;;;;;22.97;75.64;101200.09;5050709;28;20036;-72
2022/10/07 02:27:50;;;;;;;1.45;0.47;;;;;;;22.96;75.73;101203.75;5051662;28;20405;-72
2022/10/07 02:30:19;;;;;;;0.93;0.40;;;;;;;22.95;75.73;101196.75;5051635;28;20489;-72
2022/10/07 02:32:50;;;;;;;0.68;0.40;;;;;;;22.91;75.76;101201.59;5051704;28;20029;-72
2022/10/07 02:36:09;;;;;;;1.48;0.40;;;;;;;22.92;75.89;101186.34;5051719;28;20036;-72
2022/10/07 02:38:37;;;;;;;1.92;0.47;;;;;;;22.91;75.69;101190.88;5041490;28;20045;-72
2022/10/07 02:41:30;;;;;;;3.30;1.40;;;;;;;22.90;75.76;101175.81;5054731;28;20163;-72
2022/10/07 02:44:07;;;;;;;1.30;0.40;;;;;;;22.91;75.70;101180.16;5055519;28;20025;-72
2022/10/07 02:46:41;;;;;;;1.92;0.50;;;;;;;22.89;75.77;101173.31;5054282;28;20045;-72
2022/10/07 02:49:11;;;;;;;2.67;0.35;;;;;;;22.90;75.73;101165.09;5055336;28;20021;-72
2022/10/07 02:51:45;;;;;;;0.93;0.40;;;;;;;22.90;75.72;101167.75;5054644;28;20099;-72
2022/10/07 02:54:12;;;;;;;3.30;0.40;;;;;;;22.87;75.86;101162.75;5055438;28;20021;-72
2022/10/07 02:56:40;;;;;;;2.47;0.50;;;;;;;22.75;76.19;101162.25;5055331;28;20100;-72
2022/10/07 02:59:08;;;;;;;1.45;0.32;;;;;;;22.86;75.87;101154.88;5055151;28;20064;-72
2022/10/07 03:01:40;;;;;;;2.55;0.30;;;;;;;22.84;76.08;101155.06;5055434;28;20021;-72
2022/10/07 03:04:06;;;;;;;1.90;0.38;;;;;;;22.84;75.88;101147.00;5055141;28;20013;-72
2022/10/07 03:06:33;;;;;;;1.77;0.30;;;;;;;22.84;75.97;101146.19;5054073;28;20074;-72
2022/10/07 03:08:59;;;;;;;2.05;0.45;;;;;;;22.82;75.83;101143.66;5054995;28;20262;-72
2022/10/07 03:11:24;;;;;;;1.77;0.20;;;;;;;22.81;75.89;101142.00;5055380;28;20223;-72
2022/10/07 03:13:50;;;;;;;2.78;0.57;;;;;;;22.81;75.85;101142.00;5054981;28;20027;-72
2022/10/07 03:16:15;;;;;;;2.28;0.68;;;;;;;22.82;75.77;101137.47;5054883;28;20414;-72
2022/10/07 03:18:41;;;;;;;1.33;0.30;;;;;;;22.82;76.06;101134.81;5054757;28;20486;-72
2022/10/07 03:21:07;;;;;;;0.70;0.30;;;;;;;22.80;75.85;101139.50;5054205;28;20364;-72
2022/10/07 03:23:33;;;;;;;1.10;0.40;;;;;;;22.79;75.96;101138.66;5054590;28;20108;-72
2022/10/07 03:25:59;;;;;;;1.13;0.47;;;;;;;22.78;75.75;101131.63;5054674;28;20109;-72
2022/10/07 03:28:27;;;;;;;1.58;0.45;;;;;;;22.77;75.91;101138.00;5054732;28;20021;-72
2022/10/07 03:30:53;;;;;;;1.63;0.50;;;;;;;22.77;75.98;101135.31;5054730;28;20032;-72
2022/10/07 03:33:24;;;;;;;1.83;0.40;;;;;;;22.77;76.03;101138.00;5054757;28;20478;-72
2022/10/07 03:35:50;;;;;;;0.70;0.20;;;;;;;22.76;75.65;101128.28;5053910;28;20083;-72
2022/10/07 03:38:15;;;;;;;1.50;0.30;;;;;;;22.77;75.94;101129.97;5052623;28;20029;-72
2022/10/07 03:40:43;;;;;;;1.85;0.30;;;;;;;22.83;75.54;101126.63;5054326;28;20032;-72
2022/10/07 03:43:08;;;;;;;1.77;0.22;;;;;;;22.86;75.34;101120.09;5054562;28;20032;-72
2022/10/07 03:45:36;;;;;;;1.77;0.40;;;;;;;22.83;75.34;101123.09;5054722;28;20029;-72
2022/10/07 03:48:02;;;;;;;0.52;0.10;;;;;;;22.84;75.46;101117.56;5054349;28;20482;-72
2022/10/07 03:50:28;;;;;;;1.23;0.35;;;;;;;22.85;75.29;101113.03;5054031;28;20082;-72
2022/10/07 03:52:54;;;;;;;0.98;0.20;;;;;;;22.84;75.35;101112.22;5053475;28;20025;-72
2022/10/07 03:55:20;;;;;;;1.63;0.20;;;;;;;22.83;75.33;101104.34;5054528;28;20036;-72
2022/10/07 03:57:56;;;;;;;0.45;0.10;;;;;;;22.82;75.34;101106.19;5054142;28;20025;-72
2022/10/07 04:00:24;;;;;;;1.00;0.20;;;;;;;22.82;75.27;101105.34;5054246;28;20047;-72
2022/10/07 04:02:50;;;;;;;1.33;0.30;;;;;;;22.82;75.20;101094.66;5054134;28;20515;-72
2022/10/07 04:05:17;;;;;;;0.70;0.13;;;;;;;22.81;75.23;101104.53;5053877;28;20163;-72
2022/10/07 04:07:47;;;;;;;1.27;0.20;;;;;;;22.82;75.26;101100.00;5053276;28;20378;-72
2022/10/07 04:10:15;;;;;;;1.10;0.30;;;;;;;22.81;75.17;101104.53;5053670;28;20113;-72
2022/10/07 04:12:42;;;;;;;1.08;0.20;;;;;;;22.81;75.17;101104.53;5053847;28;20493;-72
2022/10/07 04:15:12;;;;;;;1.77;0.28;;;;;;;22.78;75.38;101100.31;5053850;28;20025;-72
2022/10/07 04:17:40;;;;;;;0.63;0.20;;;;;;;22.78;75.29;101099.50;5053712;28;20029;-72
2022/10/07 04:20:07;;;;;;;1.48;0.40;;;;;;;22.77;75.28;101098.66;5053706;28;20064;-72
2022/10/07 04:22:32;;;;;;;1.67;0.28;;;;;;;22.78;75.04;101094.13;5053106;28;20040;-72
2022/10/07 04:27:42;;;;;;;0.82;0.28;;;;;;;22.77;75.12;101097.84;5053594;28;20085;-72
2022/10/07 04:30:08;;;;;;;1.48;0.20;;;;;;;22.76;75.14;101105.00;5053383;28;20488;-72
2022/10/07 04:32:35;;;;;;;2.28;0.47;;;;;;;22.68;75.29;101104.19;5053531;28;20056;-72
2022/10/07 04:35:02;;;;;;;1.10;0.13;;;;;;;22.81;75.12;101092.97;5052533;28;20048;-72
2022/10/07 04:37:28;;;;;;;0.63;0.22;;;;;;;22.80;75.09;101092.13;5052558;28;20033;-72
2022/10/07 04:39:54;;;;;;;0.70;0.15;;;;;;;22.80;75.08;101085.94;5053370;28;20098;-72
2022/10/07 04:45:04;;;;;;;1.75;0.30;;;;;;;22.78;74.76;101088.78;5053565;28;20541;-72
2022/10/07 04:47:30;;;;;;;1.63;0.20;;;;;;;22.78;74.78;101078.09;5051941;28;20029;-72
2022/10/07 04:49:55;;;;;;;2.33;0.35;;;;;;;22.78;75.08;101084.25;5046174;28;20033;-72
2022/10/07 04:52:21;;;;;;;1.30;0.40;;;;;;;22.78;75.04;101083.44;5051427;28;20028;-72
2022/10/07 04:54:46;;;;;;;0.60;0.20;;;;;;;22.77;74.92;101077.25;5053145;28;20532;-72
2022/10/07 04:57:15;;;;;;;1.08;0.20;;;;;;;22.78;74.72;101078.09;5053091;28;20060;-72
2022/10/07 04:59:41;;;;;;;1.90;0.70;;;;;;;22.75;74.85;101078.44;5052666;28;20098;-72
2022/10/07 05:02:06;;;;;;;1.08;0.40;;;;;;;22.73;74.64;101075.09;5052122;28;20418;-72
2022/10/07 05:04:31;;;;;;;2.20;0.30;;;;;;;22.73;74.94;101069.72;5053166;28;20498;-72
2022/10/07 05:06:57;;;;;;;0.98;0.22;;;;;;;22.69;75.10;101068.38;5051968;28;20074;-72
2022/10/07 05:09:23;;;;;;;2.78;0.30;;;;;;;22.71;74.78;101072.56;5052657;28;20036;-72
2022/10/07 05:11:51;;;;;;;1.48;0.50;;;;;;;22.73;74.75;101078.59;5052669;28;20032;-72
2022/10/07 05:14:20;;;;;;;1.35;0.10;;;;;;;22.66;75.20;101074.06;5052688;28;20035;-72
2022/10/07 05:16:47;;;;;;;2.05;0.40;;;;;;;22.67;74.88;101065.88;5052688;28;20025;-72
2022/10/07 05:19:13;;;;;;;1.48;0.20;;;;;;;22.70;75.08;101070.06;5052468;28;20245;-72
2022/10/07 05:21:38;;;;;;;1.75;0.40;;;;;;;22.70;74.83;101054.00;5051828;28;20156;-72
2022/10/07 05:24:04;;;;;;;0.60;0.17;;;;;;;22.70;74.91;101044.13;5052573;28;20017;-72
2022/10/07 05:26:30;;;;;;;1.25;0.50;;;;;;;22.69;74.86;101045.13;5052415;28;20025;-72
2022/10/07 05:28:55;;;;;;;0.95;0.32;;;;;;;22.69;74.74;101044.28;5052428;28;20021;-72
2022/10/07 05:31:21;;;;;;;0.77;0.20;;;;;;;22.66;75.02;101044.63;5052397;28;20391;-72
2022/10/07 05:33:48;;;;;;;2.22;0.20;;;;;;;22.64;75.08;101038.59;5052477;28;20028;-72
2022/10/07 05:36:14;;;;;;;0.93;0.20;;;;;;;22.62;75.17;101040.63;5051180;28;20025;-72
2022/10/07 05:38:39;;;;;;;1.75;0.60;;;;;;;22.64;75.03;101038.59;5051480;28;20044;-72
2022/10/07 05:41:08;;;;;;;0.63;0.20;;;;;;;22.63;74.95;101037.78;5052358;28;20183;-72
2022/10/07 05:43:36;;;;;;;0.52;0.20;;;;;;;22.61;75.07;101031.75;5052288;28;20020;-72
2022/10/07 05:46:05;;;;;;;1.70;0.60;;;;;;;22.66;74.83;101039.28;5052385;28;20025;-72
2022/10/07 05:48:32;;;;;;;0.40;0.20;;;;;;;22.64;74.91;101034.09;5050842;28;20036;-72
2022/10/07 05:50:58;;;;;;;0.52;0.20;;;;;;;22.65;74.81;101032.22;5052158;28;20040;-72
2022/10/07 05:53:24;;;;;;;0.63;0.13;;;;;;;22.63;75.00;101031.56;5051369;28;20483;-72
2022/10/07 05:55:50;;;;;;;1.20;0.35;;;;;;;22.62;75.00;101024.56;5051966;28;20467;-72
2022/10/07 05:58:17;;;;;;;1.38;0.20;;;;;;;22.64;74.88;101027.91;5051806;28;20033;-72
2022/10/07 06:00:54;;;;;;;0.70;0.30;;;;;;;22.64;74.96;101028.72;5052000;28;20033;-72
2022/10/07 06:03:21;;;;;;;1.45;0.30;;;;;;;22.63;74.99;101027.06;5051953;28;20025;-72
2022/10/07 06:05:49;;;;;;;1.23;0.20;;;;;;;22.62;74.86;101028.06;5050972;28;20119;-72
2022/10/07 06:08:16;;;;;;;1.33;0.30;;;;;;;22.61;74.74;101018.38;5050453;28;20390;-72
2022/10/07 06:13:26;;;;;;;1.02;0.20;;;;;;;22.58;74.79;101014.19;5051090;28;20114;-72
2022/10/07 06:15:51;;;;;;;1.25;0.30;;;;;;;22.58;74.66;101014.19;5051845;28;20048;-72
2022/10/07 06:18:17;;;;;;;2.00;0.60;;;;;;;22.60;74.49;101010.50;5051428;28;20033;-72
2022/10/07 06:20:52;;;;;;;1.45;0.32;;;;;;;22.61;74.61;101009.50;5049885;28;20209;-72
2022/10/07 06:23:17;;;;;;;1.23;0.40;;;;;;;22.59;74.56;101009.69;5051429;28;20024;-72
2022/10/07 06:25:50;;;;;;;0.75;0.40;;;;;;;22.55;74.83;101009.19;5051468;28;20025;-72
2022/10/07 06:28:16;;;;;;;1.08;0.40;;;;;;;22.51;74.82;101012.34;5050677;28;20048;-72
2022/10/07 06:30:41;;;;;;;1.45;0.50;;;;;;;22.53;74.68;101008.50;5050240;28;20529;-72
2022/10/07 06:33:07;;;;;;;2.50;0.50;;;;;;;22.54;74.72;101012.84;5051436;28;20540;-72
2022/10/07 06:35:32;;;;;;;1.45;0.20;;;;;;;22.55;74.60;100998.47;5051511;28;20029;-72
2022/10/07 06:37:58;;;;;;;0.75;0.10;;;;;;;22.54;74.60;101002.13;5051207;28;20024;-71
2022/10/07 06:40:23;;;;;;;0.55;0.20;;;;;;;22.55;74.96;101001.16;5051235;28;20029;-71
2022/10/07 06:42:48;;;;;;;2.22;0.20;;;;;;;22.58;75.28;101000.78;5050987;28;20017;-72
2022/10/07 06:45:14;;;;;;;1.50;0.30;;;;;;;22.62;76.04;100998.63;5050679;28;20033;-71
2022/10/07 06:47:39;;;;;;;3.38;0.40;;;;;;;22.67;76.86;101008.81;5042608;28;20032;-72
2022/10/07 06:50:05;;;;;;;1.63;0.30;;;;;;;22.72;77.33;100998.44;5031243;28;20029;-71
2022/10/07 06:52:31;;;;;;;3.08;0.50;;;;;;;22.77;77.88;100996.09;5031396;28;20112;-71
2022/10/07 06:54:57;;;;;;;3.83;0.40;;;;;;;22.83;78.75;100990.06;5031400;28;20036;-71
2022/10/07 06:57:23;;;;;;;11.85;0.63;;;;;;;22.85;78.74;100985.38;5037807;28;20120;-71
2022/10/07 06:59:48;;;;;;;2.45;0.43;;;;;;;22.89;78.77;101005.44;5051052;28;20478;-71
2022/10/07 07:02:14;;;;;;;1.40;0.35;;;;;;;22.94;79.03;100999.56;5061593;28;20025;-71
2022/10/07 07:04:39;;;;;;;3.80;0.50;;;;;;;23.00;79.09;101000.72;5063477;28;20453;-71
2022/10/07 07:07:05;;;;;;;5.25;0.45;;;;;;;23.04;79.45;100997.56;5064904;28;20029;-71
2022/10/07 07:09:31;;;;;;;2.40;0.55;;;;;;;23.16;79.67;101000.72;5050936;28;20028;-71
2022/10/07 07:11:56;;;;;;;2.67;0.68;;;;;;;23.27;79.46;100996.84;5052040;28;20086;-71
2022/10/07 07:14:22;;;;;;;8.73;1.10;;;;;;;23.35;79.51;101003.00;5048914;28;20103;-71
2022/10/07 07:16:47;;;;;;;9.13;0.90;;;;;;;23.43;79.74;101001.31;5056397;28;20033;-72
2022/10/07 07:19:13;;;;;;;10.40;0.85;;;;;;;23.50;79.48;100994.22;5050178;28;20135;-70
2022/10/07 07:21:39;;;;;;;10.73;0.73;;;;;;;23.57;80.00;101003.25;5049153;28;20036;-72
2022/10/07 07:24:06;;;;;;;8.82;0.90;;;;;;;23.63;79.86;100997.16;5051276;28;20029;-72
2022/10/07 07:26:32;;;;;;;3.53;1.00;;;;;;;23.63;80.14;101005.22;5053129;28;20032;-72
2022/10/07 07:29:03;;;;;;;6.22;0.65;;;;;;;23.68;80.28;101004.72;5052953;28;20027;-72
2022/10/07 07:31:32;;;;;;;3.70;0.70;;;;;;;23.71;80.13;101004.34;5059465;28;20085;-78
2022/10/07 07:34:00;;;;;;;10.38;0.98;;;;;;;23.81;80.35;101009.50;5055685;28;20029;-72
2022/10/07 07:36:28;;;;;;;14.85;0.90;;;;;;;23.86;80.17;101009.84;5072523;28;20104;-72
2022/10/07 07:38:59;;;;;;;6.25;0.80;;;;;;;23.88;79.90;101010.50;5053746;28;20091;-73
2022/10/07 07:41:28;;;;;;;13.32;1.80;;;;;;;23.91;79.63;101012.81;5054272;28;20029;-73
2022/10/07 07:43:56;;;;;;;14.10;1.20;;;;;;;23.87;79.14;101008.81;5063827;28;20031;-71
2022/10/07 07:46:24;;;;;;;5.55;1.60;;;;;;;23.87;78.92;101006.94;5062808;28;20028;-71
2022/10/07 07:48:51;;;;;;;11.95;1.20;;;;;;;23.87;78.65;101006.13;5062285;28;20028;-72
2022/10/07 07:51:17;;;;;;;5.03;0.95;;;;;;;23.87;78.57;101011.50;5056639;28;20025;-73
2022/10/07 07:53:43;;;;;;;4.38;1.15;;;;;;;23.88;78.56;101005.13;5069414;28;20079;-72
2022/10/07 07:56:10;;;;;;;15.05;2.03;;;;;;;23.87;77.85;101008.81;5059127;28;20060;-72
2022/10/07 07:58:35;;;;;;;12.95;1.45;;;;;;;23.87;77.93;101003.44;5065531;28;20028;-72
2022/10/07 08:01:02;;;;;;;5.43;0.70;;;;;;;23.87;77.57;101006.94;5060023;28;20437;-72
2022/10/07 08:03:28;;;;;;;7.32;1.02;;;;;;;23.86;77.34;101018.69;5064114;28;20027;-72
2022/10/07 08:05:54;;;;;;;4.68;1.08;;;;;;;23.86;77.35;101017.88;5061031;28;20029;-71
2022/10/07 08:08:20;;;;;;;4.15;0.90;;;;;;;23.85;77.19;101013.50;5051397;28;20068;-72
2022/10/07 08:10:46;;;;;;;8.55;1.38;;;;;;;23.80;76.22;101016.72;5055405;28;20048;-72
2022/10/07 08:13:11;;;;;;;14.00;1.52;;;;;;;23.75;76.27;101013.69;5057210;28;20127;-71
2022/10/07 08:15:37;;;;;;;12.75;1.15;;;;;;;23.75;76.34;101006.47;5069506;28;20013;-71
2022/10/07 08:18:04;;;;;;;8.38;1.30;;;;;;;23.80;76.25;101007.84;5052485;28;20029;-71
2022/10/07 08:20:30;;;;;;;14.85;1.88;;;;;;;23.79;75.79;101000.81;5054676;28;20035;-71
2022/10/07 08:22:58;;;;;;;57.45;4.07;;;;;;;23.32;69.47;100989.97;5048237;28;20385;-89
2022/10/07 08:25:24;;;;;;;8.43;1.98;;;;;;;23.62;65.73;100992.84;5058610;28;20052;-89
2022/10/07 08:27:50;;;;;;;6.53;1.45;;;;;;;22.37;68.53;100984.41;5049245;28;20479;-89
2022/10/07 08:30:15;;;;;;;6.30;1.27;;;;;;;24.05;64.00;100982.56;5052083;28;20033;-89
2022/10/07 08:32:41;;;;;;;9.45;1.40;;;;;;;26.39;53.84;100978.47;5051017;28;20449;-89
2022/10/07 08:35:07;;;;;;;10.70;1.65;;;;;;;24.03;60.39;100984.59;5051811;28;20017;-88
2022/10/07 08:37:32;;;;;;;10.32;1.67;;;;;;;30.17;47.65;100961.88;5051857;28;20115;-89
2022/10/07 08:39:57;;;;;;;6.85;1.05;;;;;;;34.65;37.09;100942.31;5051150;28;20032;-89
2022/10/07 08:42:34;;;;;;;6.43;1.17;;;;;;;35.23;33.07;100969.28;5047768;28;20087;-90
2022/10/07 08:45:00;;;;;;;6.32;1.30;;;;;;;34.17;35.33;100960.16;5054397;28;20036;-90
2022/10/07 08:47:42;;;;;;;8.70;1.60;;;;;;;37.20;29.96;100947.59;5056007;28;20028;-89
2022/10/07 08:50:24;;;;;;;6.15;1.60;;;;;;;39.11;27.40;100937.34;5051724;28;20072;-90
2022/10/07 08:53:00;;;;;;;7.50;1.08;;;;;;;39.83;26.33;100916.53;5051173;28;20028;-90
2022/10/07 08:55:47;;;;;;;7.20;1.38;;;;;;;40.07;25.47;100939.69;5052594;28;20441;-90
2022/10/07 08:58:49;;;;;;;6.38;1.55;;;;;;;39.45;25.50;100930.00;5052147;28;20083;-90
2022/10/07 09:01:28;;;;;;;11.13;1.55;;;;;;;34.39;31.24;100940.31;5038798;28;20414;-90
2022/10/07 09:04:01;;;;;;;4.75;1.48;;;;;;;37.98;28.29;100943.91;5045868;28;20026;-89
2022/10/07 09:07:01;;;;;;;8.20;1.27;;;;;;;38.82;26.37;100946.22;5048174;28;20123;-90
2022/10/07 09:09:52;;;;;;;6.93;1.70;;;;;;;34.65;31.04;100946.97;5029539;28;20064;-89
2022/10/07 09:12:33;;;;;;;4.50;1.13;;;;;;;35.83;29.80;100946.47;5044256;28;20116;-89
2022/10/07 09:15:02;;;;;;;7.45;0.98;;;;;;;34.63;31.51;100933.56;5050456;28;20029;-90
2022/10/07 09:17:42;;;;;;;6.28;1.30;;;;;;;34.60;31.47;100939.53;5051561;28;20103;-89
2022/10/07 09:20:16;;;;;;;6.65;1.58;;;;;;;35.51;30.58;100930.03;5050000;28;20483;-90
2022/10/07 09:22:49;;;;;;;6.72;1.45;;;;;;;31.96;34.97;100933.75;5046942;28;20030;-90
2022/10/07 09:25:28;;;;;;;12.15;1.42;;;;;;;30.70;37.96;100935.38;5049285;28;20459;-90
2022/10/07 09:27:54;;;;;;;6.85;1.52;;;;;;;32.43;35.56;100927.56;5051202;28;20113;-89
2022/10/07 09:30:22;;;;;;;9.45;1.20;;;;;;;33.36;32.86;100924.94;5050284;28;20115;-89
2022/10/07 09:32:52;;;;;;;7.00;1.27;;;;;;;32.26;35.05;100922.00;5050472;28;20036;-90
2022/10/07 09:35:23;;;;;;;5.07;1.55;;;;;;;31.29;36.19;100922.19;5048773;28;20029;-89
2022/10/07 09:38:02;;;;;;;6.50;0.93;;;;;;;31.38;36.12;100915.38;5049448;28;20029;-89
2022/10/07 09:40:34;;;;;;;7.05;1.73;;;;;;;31.97;35.26;100927.28;5050012;28;20424;-89
2022/10/07 09:43:01;;;;;;;5.15;1.85;;;;;;;33.04;33.19;100916.34;5051477;28;20483;-90
2022/10/07 09:45:33;;;;;;;6.38;1.75;;;;;;;34.54;31.81;100918.75;5050846;28;20075;-90
2022/10/07 09:48:15;;;;;;;8.30;1.27;;;;;;;36.43;29.02;100906.16;5049949;28;20044;-90
2022/10/07 09:50:42;;;;;;;5.97;1.17;;;;;;;35.25;30.43;100912.53;5049543;28;20033;-90
2022/10/07 09:53:24;;;;;;;7.57;1.25;;;;;;;36.65;28.48;100900.59;5051159;28;20516;-90
2022/10/07 09:55:52;;;;;;;3.38;0.93;;;;;;;36.03;28.48;100896.59;5050472;28;20041;-91
2022/10/07 09:58:30;;;;;;;5.63;1.27;;;;;;;37.81;27.28;100894.84;5045861;28;20031;-90
2022/10/07 10:01:00;;;;;;;4.25;0.90;;;;;;;38.17;26.16;100889.31;5040610;28;20116;-90
2022/10/07 10:03:31;;;;;;;5.88;1.58;;;;;;;38.38;25.92;100884.63;5047888;28;20056;-90
2022/10/07 10:06:00;;;;;;;9.57;1.30;;;;;;;40.03;23.74;100878.94;5064729;28;20045;-91
2022/10/07 10:08:27;;;;;;;7.18;1.45;;;;;;;37.48;26.60;100891.53;5050810;28;20087;-90
2022/10/07 10:10:58;;;;;;;8.95;1.10;;;;;;;38.82;25.71;100874.84;5050875;28;20060;-90
2022/10/07 10:13:26;;;;;;;6.28;1.60;;;;;;;34.55;28.80;100880.28;5050572;28;20025;-90
2022/10/07 10:15:51;;;;;;;6.00;1.13;;;;;;;34.85;28.98;100870.03;5052471;28;20025;-89
2022/10/07 10:18:31;;;;;;;7.38;0.80;;;;;;;34.41;30.24;100870.03;5052476;28;20509;-90
2022/10/07 10:21:18;;;;;;;6.93;1.38;;;;;;;35.77;28.53;100864.72;5048107;28;20037;-90
2022/10/07 10:23:49;;;;;;;8.13;1.25;;;;;;;37.22;27.17;100862.47;5045116;28;20032;-91
2022/10/07 10:26:24;;;;;;;3.63;0.93;;;;;;;37.57;26.94;100864.41;5034382;28;20037;-90
2022/10/07 10:29:19;;;;;;;7.60;1.00;;;;;;;36.01;28.59;100859.69;5049923;28;20062;-90
2022/10/07 10:32:08;;;;;;;5.15;0.95;;;;;;;35.00;29.78;100853.84;5051714;28;20033;-91
2022/10/07 10:34:53;;;;;;;4.03;0.85;;;;;;;34.94;28.91;100863.06;5050331;28;20906;-90
2022/10/07 10:37:38;;;;;;;4.20;0.98;;;;;;;35.13;28.88;100864.38;5048985;28;20021;-90
2022/10/07 10:40:21;;;;;;;5.97;1.00;;;;;;;35.14;28.59;100857.81;5054853;28;20078;-90
2022/10/07 10:43:16;;;;;;;5.13;1.33;;;;;;;35.82;28.51;100845.63;5050750;28;20033;-91
2022/10/07 10:46:12;;;;;;;2.67;0.70;;;;;;;34.24;29.75;100854.50;5044764;28;20396;-92
2022/10/07 10:49:00;;;;;;;8.23;1.13;;;;;;;32.80;30.63;100845.72;5048391;28;20040;-91
2022/10/07 10:51:35;;;;;;;3.28;1.00;;;;;;;29.25;36.63;100856.72;5049286;28;20152;-90
2022/10/07 10:54:11;;;;;;;9.40;1.13;;;;;;;29.10;37.04;100849.91;5046531;28;20025;-89
2022/10/07 10:56:57;;;;;;;3.53;0.95;;;;;;;32.56;32.50;100853.13;5046706;28;20487;-89
2022/10/07 10:59:46;;;;;;;9.65;1.48;;;;;;;34.52;30.06;100847.25;5081939;28;20044;-90
2022/10/07 11:02:37;;;;;;;6.70;0.80;;;;;;;30.08;35.45;100843.25;5052780;28;20043;-90
2022/10/07 11:05:16;;;;;;;4.28;1.13;;;;;;;30.26;34.42;100843.25;5052722;28;20029;-89
2022/10/07 11:08:16;;;;;;;5.80;1.20;;;;;;;27.97;39.01;100838.38;5053581;28;20025;-89
2022/10/07 11:10:58;;;;;;;6.78;0.93;;;;;;;32.34;33.71;100834.69;5056220;28;20517;-90
2022/10/07 11:13:35;;;;;;;5.88;1.02;;;;;;;30.51;35.61;100824.28;5054080;28;20029;-90
2022/10/07 11:16:16;;;;;;;3.40;0.73;;;;;;;29.94;36.86;100821.69;5054073;28;20429;-90
2022/10/07 11:19:13;;;;;;;4.85;1.02;;;;;;;29.92;35.89;100814.84;5052303;28;20159;-90
2022/10/07 11:21:45;;;;;;;9.20;1.10;;;;;;;30.35;34.80;100808.59;5066247;28;20479;-89
2022/10/07 11:24:26;;;;;;;5.78;1.10;;;;;;;32.98;32.14;100831.13;5051691;28;20033;-90
2022/10/07 11:27:03;;;;;;;10.77;0.90;;;;;;;33.50;31.54;100803.78;5050866;28;20021;-91
2022/10/07 11:29:50;;;;;;;6.72;1.00;;;;;;;32.78;32.18;100785.31;5055216;28;20021;-92
2022/10/07 11:32:19;;;;;;;4.30;1.02;;;;;;;29.26;36.21;100796.16;5051227;28;20028;-92
2022/10/07 11:34:54;;;;;;;4.00;0.77;;;;;;;27.63;39.78;100788.97;5061375;28;20478;-92
2022/10/07 11:37:43;;;;;;;8.45;1.48;;;;;;;26.05;42.22;100778.22;5054485;28;20033;-91
2022/10/07 11:40:09;;;;;;;6.55;0.98;;;;;;;26.45;42.26;100767.66;5050468;28;20036;-92
2022/10/07 11:42:43;;;;;;;4.50;0.90;;;;;;;27.62;40.89;100771.09;5067161;28;20029;-92
2022/10/07 11:45:17;;;;;;;4.65;1.00;;;;;;;25.96;42.44;100782.09;5058517;28;20483;-93
2022/10/07 11:47:52;;;;;;;5.32;1.23;;;;;;;24.49;44.83;100766.28;5044021;28;20466;-91
2022/10/07 11:50:19;;;;;;;8.68;1.00;;;;;;;23.68;46.40;100777.66;5063416;28;20017;-89
2022/10/07 11:52:48;;;;;;;6.10;1.00;;;;;;;23.87;47.19;100762.09;5063359;28;20191;-89